Time;durP1;ratioP1;P1;durP2;ratioP2;P2;SDS_P1;SDS_P2;PMS_P1;PMS_P2;Temp;Humidity;BMP_temperature;BMP_pressure;BME280_temperature;BME280_humidity;BME280_pressure;Samples;Min_cycle;Max_cycle;Signal;HPM_P1;HPM_P2
2024/01/13 00:01:07;;;;;;;20.48;7.78;;;-2.60;98.00;;;;;;5113882;28;20535;-72
2024/01/13 00:03:36;;;;;;;17.20;6.17;;;-2.60;99.90;;;;;;5111347;28;21249;-73
2024/01/13 00:06:03;;;;;;;18.65;8.05;;;-2.60;99.90;;;;;;5101827;28;20475;-72
2024/01/13 00:08:30;;;;;;;17.00;7.03;;;-2.70;99.90;;;;;;5098166;28;20697;-72
2024/01/13 00:10:56;;;;;;;19.63;7.45;;;-2.70;99.90;;;;;;5098479;28;20432;-73
2024/01/13 00:13:24;;;;;;;17.05;6.55;;;-2.60;99.90;;;;;;5097718;28;20931;-72
2024/01/13 00:15:51;;;;;;;19.70;7.53;;;-2.50;99.90;;;;;;5112454;28;20477;-72
2024/01/13 00:18:19;;;;;;;16.05;5.95;;;-2.60;98.90;;;;;;5116637;28;20423;-72
2024/01/13 00:20:48;;;;;;;13.55;5.97;;;-2.60;98.50;;;;;;5096803;28;20638;-71
2024/01/13 00:23:18;;;;;;;19.23;6.78;;;-2.50;99.90;;;;;;5096255;28;20761;-72
2024/01/13 00:25:45;;;;;;;15.88;7.70;;;-2.30;99.90;;;;;;5096579;28;20479;-71
2024/01/13 00:28:12;;;;;;;18.58;6.75;;;-2.10;99.90;;;;;;5096675;28;20437;-72
2024/01/13 00:30:39;;;;;;;14.18;4.95;;;-1.90;99.90;;;;;;5097180;28;20419;-70
2024/01/13 00:33:06;;;;;;;15.80;6.05;;;-1.90;58.10;;;;;;5097086;28;20685;-72
2024/01/13 00:35:33;;;;;;;11.07;4.85;;;-1.90;25.00;;;;;;5096424;28;20478;-72
2024/01/13 00:38:01;;;;;;;17.88;6.03;;;-2.00;10.60;;;;;;5096096;28;20754;-71
2024/01/13 00:40:28;;;;;;;16.52;6.13;;;-2.20;19.50;;;;;;5108611;28;20477;-72
2024/01/13 00:42:55;;;;;;;18.10;6.30;;;-2.30;33.50;;;;;;5117716;28;20443;-72
2024/01/13 00:45:22;;;;;;;17.75;6.40;;;-2.20;56.70;;;;;;5117685;28;20514;-72
2024/01/13 00:47:49;;;;;;;17.90;6.90;;;-2.20;49.90;;;;;;5117168;28;20489;-71
2024/01/13 00:50:16;;;;;;;14.95;5.78;;;-2.10;51.00;;;;;;5117381;28;20855;-71
2024/01/13 00:52:43;;;;;;;16.67;7.30;;;-2.30;33.20;;;;;;5118076;28;20886;-73
2024/01/13 00:55:12;;;;;;;13.55;5.55;;;-2.30;39.90;;;;;;5117345;28;20431;-72
2024/01/13 00:57:39;;;;;;;14.02;5.05;;;-2.30;53.80;;;;;;5117669;28;20424;-73
2024/01/13 01:00:08;;;;;;;14.50;5.20;;;-2.30;46.20;;;;;;5116445;28;20816;-73
2024/01/13 01:02:35;;;;;;;16.77;6.28;;;-2.10;59.10;;;;;;5115946;28;20420;-72
2024/01/13 01:05:02;;;;;;;15.07;5.25;;;-2.10;31.20;;;;;;5115957;28;20473;-71
2024/01/13 01:07:29;;;;;;;13.13;5.10;;;-1.80;46.20;;;;;;5116632;28;20809;-71
2024/01/13 01:09:56;;;;;;;13.05;5.30;;;-1.80;1.00;;;;;;5115721;28;20432;-72
2024/01/13 01:12:24;;;;;;;19.58;6.38;;;-2.00;1.00;;;;;;5115647;28;20442;-73
2024/01/13 01:14:51;;;;;;;13.55;4.60;;;-2.00;1.00;;;;;;5116326;28;20566;-72
2024/01/13 01:17:19;;;;;;;15.45;4.50;;;-1.80;10.20;;;;;;5116436;28;20416;-72
2024/01/13 01:19:46;;;;;;;15.00;6.90;;;-1.60;24.10;;;;;;5116506;28;20424;-73
2024/01/13 01:22:13;;;;;;;12.95;5.68;;;-1.60;1.00;;;;;;5116897;28;20437;-72
2024/01/13 01:24:40;;;;;;;18.23;7.05;;;-1.60;1.00;;;;;;5098442;28;20481;-72
2024/01/13 01:27:07;;;;;;;16.33;6.60;;;-1.50;1.00;;;;;;5116488;28;20469;-71
2024/01/13 01:29:36;;;;;;;15.10;6.85;;;-1.60;1.00;;;;;;5115434;28;20428;-72
2024/01/13 01:32:03;;;;;;;14.48;5.95;;;-1.70;1.00;;;;;;5115713;28;20490;-72
2024/01/13 01:34:30;;;;;;;16.17;7.23;;;-1.90;1.00;;;;;;5113642;28;20411;-72
2024/01/13 01:36:57;;;;;;;16.05;5.68;;;-2.00;1.00;;;;;;5116144;28;20858;-72
2024/01/13 01:39:25;;;;;;;20.13;7.18;;;-2.20;1.00;;;;;;5116451;28;20446;-72
2024/01/13 01:41:52;;;;;;;15.40;6.38;;;-2.30;28.90;;;;;;5117591;28;20426;-71
2024/01/13 01:44:19;;;;;;;12.45;4.05;;;-2.30;40.40;;;;;;5111649;28;20420;-72
2024/01/13 01:46:48;;;;;;;10.45;4.63;;;-2.10;53.10;;;;;;5116058;28;20421;-72
2024/01/13 01:49:16;;;;;;;11.03;4.03;;;-2.20;29.20;;;;;;5116367;28;20552;-71
2024/01/13 01:51:44;;;;;;;14.48;4.88;;;-2.20;27.10;;;;;;5115962;28;20439;-71
2024/01/13 01:54:11;;;;;;;16.92;5.95;;;-2.00;46.90;;;;;;5115626;28;20747;-71
2024/01/13 01:56:39;;;;;;;14.32;3.90;;;-2.00;17.40;;;;;;5115804;28;20809;-71
2024/01/13 01:59:06;;;;;;;9.90;4.40;;;-1.90;22.80;;;;;;5115709;28;20413;-70
2024/01/13 02:01:33;;;;;;;12.55;4.55;;;-1.90;17.20;;;;;;5115088;28;20534;-71
2024/01/13 02:04:03;;;;;;;8.50;3.70;;;-1.70;17.20;;;;;;5114071;28;20683;-72
2024/01/13 02:06:30;;;;;;;9.68;3.10;;;-1.80;1.00;;;;;;5114485;28;20451;-71
2024/01/13 02:08:58;;;;;;;10.50;3.90;;;-1.80;1.00;;;;;;5113730;28;20432;-72
2024/01/13 02:11:25;;;;;;;13.55;4.15;;;-1.90;1.00;;;;;;5113467;28;20412;-72
2024/01/13 02:13:52;;;;;;;13.50;4.60;;;-1.80;4.40;;;;;;5113905;28;20428;-72
2024/01/13 02:16:19;;;;;;;12.03;4.17;;;-1.60;1.00;;;;;;5111399;28;20431;-72
2024/01/13 02:18:46;;;;;;;10.70;3.80;;;-1.70;1.00;;;;;;5115081;28;20416;-72
2024/01/13 02:21:15;;;;;;;11.57;3.47;;;-1.70;1.00;;;;;;5114036;28;20459;-72
2024/01/13 02:23:43;;;;;;;9.10;3.40;;;-1.70;1.00;;;;;;5108503;28;20417;-71
2024/01/13 02:26:10;;;;;;;10.93;4.10;;;-1.80;1.00;;;;;;5113558;28;20481;-71
2024/01/13 02:28:38;;;;;;;8.95;3.78;;;-1.80;1.00;;;;;;5114886;28;20851;-71
2024/01/13 02:31:05;;;;;;;12.25;3.72;;;-1.70;1.00;;;;;;5114578;28;20435;-72
2024/01/13 02:33:32;;;;;;;10.20;4.60;;;-1.60;1.00;;;;;;5114252;28;20526;-72
2024/01/13 02:35:59;;;;;;;10.13;3.63;;;-1.70;1.00;;;;;;5113755;28;20424;-71
2024/01/13 02:38:26;;;;;;;12.77;4.88;;;-1.60;1.00;;;;;;5113774;28;20416;-71
2024/01/13 02:40:55;;;;;;;13.35;3.83;;;-1.40;1.00;;;;;;5114147;28;20838;-71
2024/01/13 02:43:22;;;;;;;10.60;4.05;;;-1.20;1.00;;;;;;5114131;28;20522;-71
2024/01/13 02:45:49;;;;;;;11.17;3.70;;;-1.30;1.00;;;;;;5111376;28;20420;-71
2024/01/13 02:48:20;;;;;;;9.60;3.60;;;-1.40;1.00;;;;;;5113856;28;20412;-72
2024/01/13 02:50:56;;;;;;;15.02;6.45;;;-1.70;1.00;;;;;;5109391;28;20436;-71
2024/01/13 02:53:23;;;;;;;12.27;5.13;;;-2.00;1.00;;;;;;5115509;28;20432;-71
2024/01/13 02:55:50;;;;;;;13.38;4.75;;;-2.10;1.00;;;;;;5114334;28;20420;-71
2024/01/13 02:58:18;;;;;;;15.15;4.65;;;-2.20;1.00;;;;;;5114397;28;20836;-71
2024/01/13 03:00:45;;;;;;;15.00;5.60;;;-2.20;10.70;;;;;;5108857;28;20808;-71
2024/01/13 03:03:12;;;;;;;13.85;5.60;;;-2.10;24.40;;;;;;5114336;28;20423;-71
2024/01/13 03:05:39;;;;;;;15.80;5.70;;;-1.80;33.00;;;;;;5113170;28;20438;-71
2024/01/13 03:08:07;;;;;;;16.48;5.68;;;-1.80;1.00;;;;;;5114042;28;20678;-71
2024/01/13 03:10:34;;;;;;;11.85;4.35;;;-1.80;1.00;;;;;;5114712;28;20440;-72
2024/01/13 03:13:01;;;;;;;15.32;5.47;;;-1.80;1.00;;;;;;5114350;28;20434;-71
2024/01/13 03:15:29;;;;;;;12.95;5.35;;;-1.70;8.70;;;;;;5110829;28;20416;-72
2024/01/13 03:17:56;;;;;;;14.13;5.10;;;-1.70;1.00;;;;;;5114457;28;20473;-71
2024/01/13 03:20:23;;;;;;;15.48;5.72;;;-1.80;1.00;;;;;;5108005;28;20420;-71
2024/01/13 03:22:50;;;;;;;15.30;4.65;;;-1.90;1.00;;;;;;5114108;28;20475;-72
2024/01/13 03:25:17;;;;;;;12.13;5.72;;;-1.90;1.00;;;;;;5113338;28;20427;-72
2024/01/13 03:27:44;;;;;;;11.07;4.33;;;-1.60;23.20;;;;;;5105328;28;20721;-72
2024/01/13 03:30:14;;;;;;;12.98;5.60;;;-1.40;14.60;;;;;;5113552;28;20427;-71
2024/01/13 03:32:45;;;;;;;11.73;4.97;;;-1.20;1.00;;;;;;5115320;28;20515;-71
2024/01/13 03:35:12;;;;;;;14.15;5.40;;;-1.20;1.00;;;;;;5115352;28;20424;-72
2024/01/13 03:37:39;;;;;;;13.50;4.60;;;-1.10;1.00;;;;;;5113970;28;20674;-72
2024/01/13 03:40:07;;;;;;;12.67;6.23;;;-1.30;1.00;;;;;;5114592;28;20758;-71
2024/01/13 03:42:35;;;;;;;16.38;6.55;;;-1.50;1.00;;;;;;5114775;28;20428;-72
2024/01/13 03:45:02;;;;;;;11.90;4.93;;;-1.60;1.00;;;;;;5115288;28;20485;-72
2024/01/13 03:47:29;;;;;;;15.55;5.45;;;-1.60;1.00;;;;;;5115930;28;20431;-72
2024/01/13 03:49:58;;;;;;;14.23;5.23;;;-1.40;1.00;;;;;;5114865;28;20436;-72
2024/01/13 03:52:25;;;;;;;14.25;5.97;;;-1.20;1.00;;;;;;5113016;28;20439;-72
2024/01/13 03:54:52;;;;;;;13.47;4.87;;;-1.20;1.00;;;;;;5113127;28;20502;-72
2024/01/13 03:57:19;;;;;;;15.07;5.55;;;-1.40;1.00;;;;;;5113065;28;20416;-72
2024/01/13 03:59:46;;;;;;;11.02;4.57;;;-1.20;1.00;;;;;;5114070;28;20768;-72
2024/01/13 04:02:13;;;;;;;14.27;5.77;;;-1.00;1.00;;;;;;5113068;28;20518;-72
2024/01/13 04:04:42;;;;;;;13.90;4.80;;;-1.00;1.00;;;;;;5113662;28;20504;-72
2024/01/13 04:07:16;;;;;;;14.43;5.82;;;-1.00;1.00;;;;;;5114882;28;20455;-71
2024/01/13 04:09:43;;;;;;;12.82;3.65;;;-0.90;1.00;;;;;;5114829;28;20440;-71
2024/01/13 04:12:10;;;;;;;12.98;5.43;;;-0.70;1.00;;;;;;5114332;28;20444;-72
2024/01/13 04:14:37;;;;;;;12.47;5.70;;;-0.90;1.00;;;;;;5115628;28;20507;-71
2024/01/13 04:17:05;;;;;;;12.20;4.63;;;-1.40;1.00;;;;;;5113999;28;20822;-72
2024/01/13 04:19:32;;;;;;;13.07;5.00;;;-1.70;1.00;;;;;;5114308;28;20428;-72
2024/01/13 04:21:59;;;;;;;13.20;6.13;;;-1.70;1.00;;;;;;5114454;28;20813;-72
2024/01/13 04:24:27;;;;;;;17.23;5.78;;;-1.60;1.00;;;;;;5113629;28;20931;-71
2024/01/13 04:26:54;;;;;;;16.05;5.90;;;-1.40;1.00;;;;;;5113732;28;20903;-71
2024/01/13 04:29:21;;;;;;;13.50;5.60;;;-1.10;1.00;;;;;;5113329;28;20670;-72
2024/01/13 04:31:48;;;;;;;15.43;5.47;;;-0.90;1.00;;;;;;5113405;28;20424;-72
2024/01/13 04:34:15;;;;;;;11.85;5.55;;;-0.80;1.00;;;;;;5114122;28;20522;-72
2024/01/13 04:36:42;;;;;;;12.98;4.72;;;-0.80;1.00;;;;;;5114585;28;20856;-71
2024/01/13 04:39:09;;;;;;;11.97;5.37;;;-0.60;1.00;;;;;;5105243;28;20956;-71
2024/01/13 04:41:41;;;;;;;15.70;4.93;;;-0.90;1.00;;;;;;5094960;28;20426;-72
2024/01/13 04:44:08;;;;;;;14.50;5.30;;;-1.00;1.00;;;;;;5103243;28;20776;-72
2024/01/13 04:46:35;;;;;;;14.00;5.32;;;-0.90;1.00;;;;;;5115750;28;20420;-71
2024/01/13 04:49:03;;;;;;;16.13;6.17;;;-0.80;1.00;;;;;;5116367;28;20514;-71
2024/01/13 04:51:30;;;;;;;17.85;6.72;;;-0.70;1.00;;;;;;5100041;28;20684;-72
2024/01/13 04:53:57;;;;;;;14.13;4.90;;;-0.80;1.00;;;;;;5111031;28;20473;-71
2024/01/13 04:56:24;;;;;;;17.40;6.83;;;-0.90;1.00;;;;;;5113895;27;20895;-71
2024/01/13 04:58:53;;;;;;;14.85;6.60;;;-1.00;1.00;;;;;;5126404;27;20418;-72
2024/01/13 05:01:20;;;;;;;14.60;5.90;;;-1.30;1.00;;;;;;5107940;27;20439;-72
2024/01/13 05:03:47;;;;;;;12.60;5.30;;;-1.30;1.00;;;;;;5117915;28;20428;-72
2024/01/13 05:06:15;;;;;;;18.95;6.80;;;-1.40;1.00;;;;;;5117490;28;20420;-72
2024/01/13 05:08:42;;;;;;;14.40;6.20;;;-1.40;1.00;;;;;;5116072;28;20749;-71
2024/01/13 05:11:09;;;;;;;13.82;5.32;;;-1.50;1.00;;;;;;5117461;28;20488;-71
2024/01/13 05:13:36;;;;;;;18.65;4.50;;;-1.40;1.00;;;;;;5118440;28;20420;-71
2024/01/13 05:16:05;;;;;;;15.48;6.75;;;-1.50;1.00;;;;;;5114667;27;20486;-72
2024/01/13 05:18:32;;;;;;;18.15;5.78;;;-1.60;1.00;;;;;;5095661;28;20504;-71
2024/01/13 05:20:59;;;;;;;17.35;7.18;;;-1.60;1.00;;;;;;5108424;28;20409;-71
2024/01/13 05:23:25;;;;;;;17.33;7.45;;;-1.60;1.00;;;;;;5117258;28;20506;-71
2024/01/13 05:25:52;;;;;;;16.63;5.70;;;-1.80;1.00;;;;;;5116701;28;20522;-71
2024/01/13 05:28:19;;;;;;;14.00;5.80;;;-1.80;1.00;;;;;;5116325;28;20815;-71
2024/01/13 05:30:46;;;;;;;18.90;7.82;;;-2.00;1.00;;;;;;5113711;28;20531;-71
2024/01/13 05:33:15;;;;;;;18.10;6.72;;;-2.10;5.30;;;;;;5115148;27;20412;-72
2024/01/13 05:35:42;;;;;;;16.23;5.73;;;-1.90;22.50;;;;;;5115347;28;20506;-71
2024/01/13 05:38:09;;;;;;;18.40;6.85;;;-1.90;3.50;;;;;;5116027;28;20440;-72
2024/01/13 05:40:40;;;;;;;16.08;6.35;;;-1.90;1.00;;;;;;5114016;28;20528;-71
2024/01/13 05:43:08;;;;;;;15.40;5.55;;;-2.00;1.00;;;;;;5115224;28;20424;-72
2024/01/13 05:45:36;;;;;;;19.35;6.57;;;-1.90;15.00;;;;;;5115103;28;20468;-72
2024/01/13 05:48:04;;;;;;;13.20;5.40;;;-1.80;15.30;;;;;;5097589;28;20429;-71
2024/01/13 05:50:32;;;;;;;13.88;5.90;;;-1.50;13.70;;;;;;5111791;27;20443;-72
2024/01/13 05:52:59;;;;;;;13.15;5.05;;;-1.30;1.00;;;;;;5114228;28;20724;-71
2024/01/13 05:55:26;;;;;;;17.97;6.20;;;-1.30;1.00;;;;;;5104437;28;20436;-71
2024/01/13 05:57:53;;;;;;;12.25;4.13;;;-1.30;1.00;;;;;;5114275;28;20448;-72
2024/01/13 06:00:20;;;;;;;15.90;6.28;;;-1.20;1.00;;;;;;5114020;28;20443;-71
2024/01/13 06:02:47;;;;;;;17.27;6.13;;;-1.00;1.00;;;;;;5115995;28;20444;-71
2024/01/13 06:05:15;;;;;;;17.95;6.85;;;-1.00;1.00;;;;;;5107891;28;20445;-71
2024/01/13 06:07:43;;;;;;;16.73;6.10;;;-1.40;1.00;;;;;;5096506;28;20417;-71
2024/01/13 06:10:11;;;;;;;16.80;6.17;;;-1.60;1.00;;;;;;5111951;28;20497;-72
2024/01/13 06:12:38;;;;;;;14.30;6.03;;;-1.70;1.00;;;;;;5101010;28;20526;-72
2024/01/13 06:15:07;;;;;;;15.13;6.25;;;-1.50;1.00;;;;;;5115432;28;20435;-72
2024/01/13 06:17:34;;;;;;;17.60;6.57;;;-1.60;1.00;;;;;;5103250;28;20841;-72
2024/01/13 06:20:01;;;;;;;12.43;4.82;;;-1.40;1.00;;;;;;5098158;28;20422;-72
2024/01/13 06:22:28;;;;;;;16.17;5.68;;;-1.10;1.00;;;;;;5106012;28;20841;-72
2024/01/13 06:24:56;;;;;;;16.77;6.00;;;-0.90;1.00;;;;;;5115120;28;20432;-72
2024/01/13 06:27:23;;;;;;;15.70;6.07;;;-0.70;1.00;;;;;;5113620;28;20860;-72
2024/01/13 06:29:50;;;;;;;19.33;7.00;;;-1.00;1.00;;;;;;5113644;28;20841;-72
2024/01/13 06:32:17;;;;;;;13.57;6.35;;;-1.10;1.00;;;;;;5093752;28;20475;-71
2024/01/13 06:34:44;;;;;;;17.33;6.05;;;-1.30;1.00;;;;;;5102510;28;20837;-71
2024/01/13 06:37:11;;;;;;;14.60;6.32;;;-1.70;1.00;;;;;;5114042;28;20440;-71
2024/01/13 06:39:38;;;;;;;19.23;7.68;;;-1.80;1.00;;;;;;5114563;28;20481;-71
2024/01/13 06:42:08;;;;;;;18.80;7.93;;;-1.70;1.00;;;;;;5116768;28;20420;-72
2024/01/13 06:44:35;;;;;;;18.13;7.35;;;-1.60;1.00;;;;;;5115727;28;20424;-72
2024/01/13 06:47:04;;;;;;;19.50;7.90;;;-1.50;1.00;;;;;;5115995;28;20423;-71
2024/01/13 06:49:31;;;;;;;17.55;7.22;;;-1.60;1.00;;;;;;5115028;28;20482;-72
2024/01/13 06:51:58;;;;;;;20.65;7.72;;;-1.70;1.00;;;;;;5113105;28;20837;-72
2024/01/13 06:54:24;;;;;;;16.40;7.70;;;-1.80;1.00;;;;;;5115281;28;20747;-72
2024/01/13 06:56:51;;;;;;;23.60;8.80;;;-1.60;1.00;;;;;;5116790;28;20424;-71
2024/01/13 06:59:20;;;;;;;19.45;8.35;;;-1.60;1.00;;;;;;5095621;28;20432;-71
2024/01/13 07:01:48;;;;;;;16.65;7.10;;;-1.50;1.00;;;;;;5105277;28;20778;-71
2024/01/13 07:04:15;;;;;;;19.90;7.65;;;-1.50;1.00;;;;;;5113635;28;20408;-71
2024/01/13 07:06:42;;;;;;;20.08;8.02;;;-1.50;1.00;;;;;;5112076;28;20756;-71
2024/01/13 07:09:09;;;;;;;15.65;7.03;;;-1.60;1.00;;;;;;5115297;28;20432;-72
2024/01/13 07:11:36;;;;;;;18.92;7.53;;;-1.80;1.00;;;;;;5094972;28;20433;-71
2024/01/13 07:14:03;;;;;;;18.00;8.27;;;-1.80;1.00;;;;;;5098940;27;21063;-71
2024/01/13 07:16:32;;;;;;;17.33;7.70;;;-1.70;1.00;;;;;;5114074;28;20424;-70
2024/01/13 07:18:59;;;;;;;17.25;9.23;;;-1.80;1.00;;;;;;5110501;28;20830;-71
2024/01/13 07:21:26;;;;;;;21.35;7.03;;;-1.90;1.00;;;;;;5115305;28;20840;-71
2024/01/13 07:23:53;;;;;;;19.58;8.57;;;-1.80;1.00;;;;;;5118932;28;20423;-71
2024/01/13 07:26:21;;;;;;;21.95;8.23;;;-1.80;1.00;;;;;;5117543;27;20705;-71
2024/01/13 07:28:48;;;;;;;20.60;8.00;;;-2.00;1.00;;;;;;5105675;28;20667;-71
2024/01/13 07:31:15;;;;;;;17.20;6.90;;;-1.90;1.00;;;;;;5112205;27;20453;-71
2024/01/13 07:33:44;;;;;;;14.90;5.80;;;-1.80;1.00;;;;;;5117057;28;20710;-72
2024/01/13 07:36:11;;;;;;;18.52;7.75;;;-1.70;1.00;;;;;;5115383;28;20780;-72
2024/01/13 07:38:39;;;;;;;22.92;7.78;;;-1.80;1.00;;;;;;5110171;28;20442;-71
2024/01/13 07:41:08;;;;;;;21.17;8.02;;;-1.90;1.00;;;;;;5113420;28;20443;-72
2024/01/13 07:43:36;;;;;;;17.60;7.30;;;-2.00;1.00;;;;;;5113803;28;20446;-72
2024/01/13 07:46:05;;;;;;;22.40;7.90;;;-2.10;1.00;;;;;;5116336;28;20424;-72
2024/01/13 07:48:33;;;;;;;18.10;8.05;;;-2.20;1.00;;;;;;5110612;28;20978;-71
2024/01/13 07:51:01;;;;;;;20.90;6.85;;;-2.30;1.00;;;;;;5111749;28;20859;-71
2024/01/13 07:53:37;;;;;;;21.65;7.38;;;-2.50;1.00;;;;;;5113945;28;20721;-72
2024/01/13 07:56:05;;;;;;;18.05;7.43;;;-2.40;14.50;;;;;;5107596;28;20841;-71
2024/01/13 07:58:33;;;;;;;20.60;7.10;;;-2.40;19.60;;;;;;5107911;28;20432;-71
2024/01/13 08:01:02;;;;;;;17.77;6.72;;;-2.40;17.30;;;;;;5108138;28;20432;-71
2024/01/13 08:03:29;;;;;;;20.88;8.00;;;-2.30;23.50;;;;;;5110222;28;20444;-70
2024/01/13 08:05:57;;;;;;;16.67;6.97;;;-2.30;13.20;;;;;;5109853;28;20444;-70
2024/01/13 08:08:26;;;;;;;19.52;6.80;;;-2.30;8.10;;;;;;5106121;28;20831;-70
2024/01/13 08:10:53;;;;;;;18.38;6.80;;;-2.30;11.00;;;;;;5111134;28;20485;-70
2024/01/13 08:13:20;;;;;;;15.40;7.10;;;-2.40;10.70;;;;;;5107055;28;20493;-70
2024/01/13 08:15:47;;;;;;;16.05;6.18;;;-2.40;11.70;;;;;;5108252;28;20437;-70
2024/01/13 08:18:14;;;;;;;14.98;5.88;;;-2.30;18.10;;;;;;5107662;28;20454;-70
2024/01/13 08:20:42;;;;;;;16.85;5.90;;;-2.30;3.60;;;;;;5108934;28;20505;-70
2024/01/13 08:23:09;;;;;;;16.03;6.00;;;-2.30;12.80;;;;;;5109863;28;20595;-69
2024/01/13 08:25:38;;;;;;;14.07;4.85;;;-2.30;11.60;;;;;;5111506;28;20792;-69
2024/01/13 08:28:06;;;;;;;17.52;6.28;;;-2.20;17.00;;;;;;5108029;28;20435;-71
2024/01/13 08:30:33;;;;;;;12.10;5.25;;;-2.20;5.90;;;;;;5110874;28;20428;-70
2024/01/13 08:33:00;;;;;;;16.70;5.30;;;-2.20;3.90;;;;;;5107067;28;20527;-70
2024/01/13 08:35:28;;;;;;;16.08;4.05;;;-2.00;4.50;;;;;;5110716;28;20910;-71
2024/01/13 08:37:56;;;;;;;14.80;4.63;;;-2.00;1.00;;;;;;5115604;28;20432;-70
2024/01/13 08:40:23;;;;;;;14.52;4.55;;;-2.10;1.00;;;;;;5112400;28;20833;-70
2024/01/13 08:42:52;;;;;;;14.65;5.20;;;-2.10;5.40;;;;;;5110435;28;20451;-71
2024/01/13 08:45:23;;;;;;;12.32;4.47;;;-2.10;8.50;;;;;;5110010;28;20440;-71
2024/01/13 08:47:50;;;;;;;9.85;3.83;;;-2.00;2.10;;;;;;5113179;28;20436;-70
2024/01/13 08:50:17;;;;;;;14.65;4.55;;;-2.00;1.00;;;;;;5116379;28;20444;-70
2024/01/13 08:52:44;;;;;;;8.93;3.72;;;-2.00;1.00;;;;;;5112580;28;20435;-70
2024/01/13 08:55:12;;;;;;;12.70;3.67;;;-2.00;1.00;;;;;;5120454;28;20473;-71
2024/01/13 08:57:42;;;;;;;10.68;3.88;;;-2.00;1.00;;;;;;5122440;27;20432;-72
2024/01/13 09:00:14;;;;;;;4.55;1.35;;;-2.00;1.00;;;;;;5125001;28;20944;-71
2024/01/13 09:02:41;;;;;;;3.88;1.10;;;-1.90;1.00;;;;;;5113890;28;20436;-70
2024/01/13 09:05:09;;;;;;;3.53;0.80;;;-1.70;1.00;;;;;;5110840;28;20431;-70
2024/01/13 09:07:37;;;;;;;2.30;0.70;;;-1.60;1.00;;;;;;5111199;28;20513;-71
2024/01/13 09:10:06;;;;;;;1.90;0.65;;;-1.40;1.00;;;;;;5109398;28;20426;-70
2024/01/13 09:12:33;;;;;;;2.05;0.60;;;-1.10;1.00;;;;;;5107689;28;20436;-70
2024/01/13 09:15:00;;;;;;;2.05;0.77;;;-1.20;1.00;;;;;;5103100;27;20690;-71
2024/01/13 09:17:28;;;;;;;1.40;0.50;;;-1.30;1.00;;;;;;5105099;28;20503;-71
2024/01/13 09:19:56;;;;;;;1.70;0.60;;;-1.30;1.00;;;;;;5110313;27;20436;-71
2024/01/13 09:22:23;;;;;;;2.70;0.70;;;-1.40;1.00;;;;;;5107200;28;20426;-71
2024/01/13 09:24:50;;;;;;;2.00;0.70;;;-1.40;1.00;;;;;;5110140;28;20489;-70
2024/01/13 09:27:17;;;;;;;1.20;0.60;;;-1.20;1.00;;;;;;5105273;28;20914;-71
2024/01/13 09:29:46;;;;;;;1.90;0.90;;;-1.30;1.00;;;;;;5111402;28;20776;-71
2024/01/13 09:32:13;;;;;;;1.80;0.70;;;-1.30;1.00;;;;;;5107454;28;20433;-71
2024/01/13 09:34:42;;;;;;;1.70;0.80;;;-0.90;1.00;;;;;;5106748;28;20428;-71
2024/01/13 09:37:10;;;;;;;1.90;0.80;;;-0.80;1.00;;;;;;5106268;28;20432;-72
2024/01/13 09:39:37;;;;;;;2.25;0.70;;;-1.00;1.00;;;;;;5110378;28;20432;-72
2024/01/13 09:42:05;;;;;;;2.50;0.88;;;-1.00;1.00;;;;;;5111729;28;20440;-71
2024/01/13 09:44:32;;;;;;;2.15;0.73;;;-0.70;1.00;;;;;;5113412;28;20428;-71
2024/01/13 09:47:01;;;;;;;3.83;0.90;;;-0.40;1.00;;;;;;5101046;28;20530;-72
2024/01/13 09:49:29;;;;;;;2.40;0.90;;;-0.40;1.00;;;;;;5105131;28;20446;-71
2024/01/13 09:51:59;;;;;;;1.75;0.80;;;-0.60;99.90;;;;;;5107318;28;20442;-71
2024/01/13 09:54:27;;;;;;;2.28;0.90;;;-0.70;1.00;;;;;;5101994;27;20731;-70
2024/01/13 09:56:56;;;;;;;2.13;0.80;;;-0.80;1.00;;;;;;5106625;28;20437;-72
2024/01/13 09:59:25;;;;;;;3.00;1.00;;;-0.80;1.00;;;;;;5099716;28;20518;-72
2024/01/13 10:01:52;;;;;;;3.80;0.90;;;-0.70;1.00;;;;;;5113814;28;20762;-73
2024/01/13 10:04:20;;;;;;;2.80;1.10;;;-0.60;1.00;;;;;;5113106;28;20432;-73
2024/01/13 10:06:48;;;;;;;4.93;1.20;;;-0.70;1.00;;;;;;5102278;28;20434;-73
2024/01/13 10:09:18;;;;;;;3.53;1.20;;;-0.60;1.00;;;;;;5114728;28;21019;-72
2024/01/13 10:11:45;;;;;;;3.85;1.40;;;-0.50;1.00;;;;;;5113501;28;20438;-72
2024/01/13 10:14:14;;;;;;;3.47;1.20;;;-0.80;99.90;;;;;;5111635;28;20894;-72
2024/01/13 10:16:41;;;;;;;3.47;1.33;;;-1.10;1.00;;;;;;5114038;28;20468;-72
2024/01/13 10:19:09;;;;;;;4.28;1.33;;;-1.20;1.00;;;;;;5112138;28;20420;-72
2024/01/13 10:21:37;;;;;;;6.03;1.10;;;-1.10;1.00;;;;;;5114352;27;20454;-71
2024/01/13 10:24:05;;;;;;;4.30;1.40;;;-1.00;1.00;;;;;;5114781;28;20443;-72
2024/01/13 10:26:34;;;;;;;4.70;1.50;;;-0.90;1.00;;;;;;5109382;28;20481;-72
2024/01/13 10:29:01;;;;;;;4.50;1.50;;;-0.80;1.00;;;;;;5113174;28;20920;-72
2024/01/13 10:31:30;;;;;;;4.85;1.42;;;-0.90;1.00;;;;;;5099248;28;20426;-72
2024/01/13 10:33:57;;;;;;;5.60;1.50;;;-1.00;1.00;;;;;;5113762;28;20427;-72
2024/01/13 10:36:25;;;;;;;5.50;1.10;;;-0.90;1.00;;;;;;5112889;27;20428;-71
2024/01/13 10:38:53;;;;;;;6.15;1.60;;;-0.70;1.00;;;;;;5106043;27;20531;-71
2024/01/13 10:41:24;;;;;;;6.00;1.40;;;-0.60;1.00;;;;;;5106260;28;20436;-72
2024/01/13 10:43:55;;;;;;;6.05;1.70;;;-0.50;1.00;;;;;;5107851;28;21081;-71
2024/01/13 10:46:25;;;;;;;6.00;1.40;;;-0.50;1.00;;;;;;5108832;28;20443;-71
2024/01/13 10:48:59;;;;;;;5.57;1.70;;;-0.60;1.00;;;;;;5107289;28;20420;-71
2024/01/13 10:51:33;;;;;;;4.57;1.80;;;-0.70;1.00;;;;;;5108566;28;20435;-71
2024/01/13 10:54:02;;;;;;;4.07;1.50;;;-0.50;1.00;;;;;;5110931;28;21014;-71
2024/01/13 10:56:29;;;;;;;4.30;1.70;;;-0.30;1.00;;;;;;5100317;28;20439;-72
2024/01/13 10:58:59;;;;;;;5.07;1.52;;;0.00;99.90;;;;;;5108648;28;20918;-71
2024/01/13 11:01:29;;;;;;;5.10;1.90;;;0.10;53.70;;;;;;5108947;28;20497;-71
2024/01/13 11:03:57;;;;;;;8.07;2.40;;;-0.40;1.00;;;;;;5106437;28;20495;-71
2024/01/13 11:06:25;;;;;;;7.40;2.20;;;-0.70;99.90;;;;;;5105883;28;20436;-71
2024/01/13 11:08:53;;;;;;;5.57;2.20;;;-0.80;1.00;;;;;;5109998;28;20431;-70
2024/01/13 11:11:25;;;;;;;5.30;1.83;;;-0.80;1.00;;;;;;5111603;28;20527;-71
2024/01/13 11:13:59;;;;;;;6.18;2.08;;;-0.80;1.00;;;;;;5112144;28;20749;-71
2024/01/13 11:16:29;;;;;;;5.40;2.30;;;-1.10;1.00;;;;;;5111131;28;20424;-71
2024/01/13 11:18:58;;;;;;;5.10;1.65;;;-1.00;1.00;;;;;;5112012;28;20431;-71
2024/01/13 11:21:29;;;;;;;6.07;1.73;;;-1.00;1.00;;;;;;5106292;28;20526;-71
2024/01/13 11:24:02;;;;;;;4.25;1.50;;;-0.80;1.00;;;;;;5111428;28;20443;-71
2024/01/13 11:26:36;;;;;;;6.03;1.60;;;-0.70;1.00;;;;;;5101985;28;20441;-71
2024/01/13 11:29:16;;;;;;;4.82;2.15;;;-0.70;1.00;;;;;;5110547;28;20440;-71
2024/01/13 11:31:45;;;;;;;3.70;1.42;;;-0.90;1.00;;;;;;5098196;28;20440;-70
2024/01/13 11:34:14;;;;;;;6.97;1.70;;;-1.00;1.00;;;;;;5110591;28;20519;-71
2024/01/13 11:36:45;;;;;;;7.07;1.80;;;-1.00;1.00;;;;;;5105190;28;22052;-71
2024/01/13 11:39:12;;;;;;;5.55;1.90;;;-0.80;1.00;;;;;;5108782;28;20768;-73
2024/01/13 11:41:40;;;;;;;4.77;1.60;;;-0.70;1.00;;;;;;5112660;28;20511;-71
2024/01/13 11:44:09;;;;;;;4.18;1.70;;;-0.70;1.00;;;;;;5098009;28;20441;-71
2024/01/13 11:46:40;;;;;;;6.57;2.53;;;-0.70;1.00;;;;;;5113005;28;20850;-71
2024/01/13 11:49:08;;;;;;;6.68;2.15;;;-0.80;1.00;;;;;;5105453;28;20432;-70
2024/01/13 11:51:58;;;;;;;5.72;1.65;;;-0.80;1.00;;;;;;5112657;28;20733;-71
2024/01/13 11:54:28;;;;;;;4.97;1.33;;;-0.90;1.00;;;;;;5108743;28;21039;-70
2024/01/13 11:56:57;;;;;;;5.00;1.38;;;-1.10;1.00;;;;;;5104571;28;20444;-71
2024/01/13 11:59:24;;;;;;;3.20;1.20;;;-1.10;1.00;;;;;;5113749;28;20439;-69
2024/01/13 12:01:52;;;;;;;4.63;1.40;;;-1.10;1.00;;;;;;5112547;28;20867;-70
2024/01/13 12:04:21;;;;;;;4.78;1.50;;;-0.90;1.00;;;;;;5110565;28;20931;-70
2024/01/13 12:06:50;;;;;;;4.05;1.50;;;-0.90;1.00;;;;;;5103043;28;20431;-71
2024/01/13 12:09:19;;;;;;;3.30;1.20;;;-0.90;1.00;;;;;;5100161;28;20432;-71
2024/01/13 12:11:52;;;;;;;3.60;1.70;;;-0.80;1.00;;;;;;5099269;28;20436;-71
2024/01/13 12:14:24;;;;;;;4.45;1.58;;;-0.80;1.00;;;;;;5110756;28;20432;-71
2024/01/13 12:16:55;;;;;;;4.57;1.45;;;-0.60;1.00;;;;;;5109596;28;20430;-71
2024/01/13 12:19:27;;;;;;;4.43;1.40;;;-0.50;1.00;;;;;;5103884;28;20725;-71
2024/01/13 12:21:56;;;;;;;5.25;1.30;;;-0.40;1.00;;;;;;5109300;28;20428;-71
2024/01/13 12:24:28;;;;;;;4.05;1.70;;;-0.30;1.00;;;;;;5105609;28;20516;-71
2024/01/13 12:26:57;;;;;;;4.07;1.73;;;-0.20;1.00;;;;;;5104954;28;20436;-71
2024/01/13 12:29:29;;;;;;;4.70;1.50;;;-0.30;99.90;;;;;;5111417;28;21026;-70
2024/01/13 12:31:56;;;;;;;4.38;1.60;;;-0.20;1.00;;;;;;5110773;28;20437;-71
2024/01/13 12:34:25;;;;;;;6.07;2.05;;;-0.10;1.00;;;;;;5096754;28;20440;-71
2024/01/13 12:36:53;;;;;;;3.75;1.40;;;-0.10;1.00;;;;;;5110337;28;20933;-71
2024/01/13 12:39:21;;;;;;;3.90;1.30;;;0.10;1.00;;;;;;5107648;28;20457;-72
2024/01/13 12:41:48;;;;;;;4.63;1.55;;;0.40;99.90;;;;;;5111302;28;20427;-71
2024/01/13 12:44:16;;;;;;;2.60;1.20;;;0.40;1.00;;;;;;5109497;28;20458;-71
2024/01/13 12:46:43;;;;;;;5.20;1.57;;;0.50;1.00;;;;;;5112427;28;20489;-71
2024/01/13 12:49:12;;;;;;;4.80;1.60;;;0.50;3.20;;;;;;5112905;28;20500;-70
2024/01/13 12:51:43;;;;;;;4.60;1.60;;;0.20;1.00;;;;;;5112799;28;20435;-71